Ana Sayfa
METAR-TAF:

METAR-TAF

Havaalanları :

Nakhon Phanom, Tayland

Enlem: 17-23-02N, Boylam: 104-38-35E, yükseklik: 179 m

Güncel hava durumu gözlemi

Rapor saat 06:00 UTC de 49 dakika önce yapıldı.
Rüzgar doğu/güneydoğudan 6 kt, doğu/kuzeydoğu ve güney arasında değişken
Sıcaklık 31°C
Nem 33%
Basınç 1016 hPa
Görüş mesafesi 10 km veya daha fazla
1500 m altında bulut yok ve kümülonimbus yok

METAR: VTUW 240600Z 11006KT 060V190 CAVOK 31/13 Q1016 NOSIG

Saat: 13:49 (06:49 UTC)

Tahmin

Rapor saat 05:00 UTC de 1 saat ve 49 dakika önce yapıldı.
Ayın 24'si saat 06 UTC'den ayın 25'si saat 06 UTC'ye kadar geçerli Tahmin
Rüzgar doğudan 7 kt
Görüş mesafesi: 9000 m
Dönüşüyor
ayın 24'si saat 21 UTC'den ayın 24'si saat 23 UTC'ye kadar
Görüş mesafesi: 5000 m
Pus
Dönüşüyor
ayın 25'si saat 00 UTC'den ayın 25'si saat 02 UTC'ye kadar
Görüş mesafesi: 9000 m

TAF: VTUW 240500Z 2406/2506 09007KT 9000 NSC BECMG 2421/2423 5000 BR BECMG 2500/2502 9000 NSW

4.000'den fazla havaalanı için hava durumu gözlemleri ve tahminleri (METAR ve TAF raporları).

Kullanılabilir istasyonlar harita üzerinde sarı ve kırmızı noktalarla gösterilir.

İstasyonun adını görmek için fareyi noktanın üzerinde gezdirin.

Sonrasında hava gözlem ve tahminlerini görmek için tıklayın.

Haritayı değiştirmek için: yaklaştırmak için siyah artı işaretli yeşil düğmeye ve uzaklaştırmak için de eksi işaretli düğmeye hızla tıklayın; bitişik haritalar için yeşil okları kullanın.


METAR-TAF: